LFBT

Tarbes-Lourdes-Pyrénées Airport

Airport
ICAO code
LFBT
IATA Code
LDE
Summary
ICAO Region
EUR
ICAO Territory
Location

Ossun, Midi-Pyrenees

Serving
Tarbes
Elevation
1259 ft
Coordinates
43° 10' 57" N , 0° 0' 15" W
KCC
Cfb
Airport WX
Fog
Metar
Observation
LFBT 171330Z AUTO 29008KT 260V330 9999 BKN047 OVC062 22/13 Q1013 TEMPO 4000 TSRA SCT025CB
Station
Tarbes Ossun Lourdes
Date/Time
2022-08-17 13:30:00
Wind direction
290°
Wind speed
08 kts
Lowest cloud amount
broken clouds
Temperature
22°C
Dew point
13°C
Humidity
56%
QNH
1013 hPa
Weather condition
n/a

Description

International airport serving Tarbes.

Climatology

Temperate Marine climate/Oceanic climate (Köppen climate classification Cfb). Moderately cool summer and comparatively warm winter. Prevailing south-westerly winds from the Atlantic Ocean.

Runways

Designator Length Width Surface Rops
2/20 3000 45 ASP Yes/Yes

Airport map

Aerial View

Airport accidents

SKYbrary Partners:

Safety knowledge contributed by: